Glen Oaks, New York
Current Conditions -  °F | °C
As of 6:51 AM on Friday 28 Nov 2014 (Local Time) from KJFK Reporting Station
Scattered Clouds Scattered Clouds  
Wind Chill: 23°   Ceiling: Unl
Heat Index: 32°   Visibility: 10mi
Dew Point: 21°   Wind: 12mph
Humidity: 64%   Direction: 310°NW
Pressure: 30.14"   Gusts: NA
Location:  40.75°N, 73.71°W
Report Text: KJFK 281151Z 31010KT 10SM FEW035 SCT120 00/M06 A3014 RMK AO2 SLP206 70001 T00001061 10011 20000 53017 $
Loading
Personal Weather Stations






























Interactive Weather Map New forecast layout! Learn more

10-Day Weather Forecast

Advertisements
Track Severe Weather on mobile